createdAt,value
2023-05-25T00:02:09.580Z,9.68
2023-05-25T00:05:01.099Z,9.61
2023-05-25T00:07:49.572Z,9.56
2023-05-25T00:10:38.211Z,9.52
2023-05-25T00:13:26.854Z,9.50
2023-05-25T00:16:15.819Z,9.47
2023-05-25T00:19:05.765Z,9.43
2023-05-25T00:21:55.682Z,9.36
2023-05-25T00:24:44.237Z,9.36
2023-05-25T00:27:32.976Z,9.35
2023-05-25T00:30:21.753Z,9.29
2023-05-25T00:33:10.650Z,9.23
2023-05-25T00:36:00.168Z,9.18
2023-05-25T00:38:50.018Z,9.03
2023-05-25T00:41:41.495Z,9.06
2023-05-25T00:44:32.114Z,8.99
2023-05-25T00:47:20.732Z,8.91
2023-05-25T00:50:11.130Z,8.92
2023-05-25T00:52:59.610Z,8.91
2023-05-25T00:55:51.836Z,8.77
2023-05-25T00:58:41.455Z,8.78
2023-05-25T01:01:33.387Z,8.82
2023-05-25T01:04:22.961Z,8.86
2023-05-25T01:07:12.896Z,8.90
2023-05-25T01:10:03.637Z,8.84
2023-05-25T01:12:54.604Z,8.72
2023-05-25T01:15:43.357Z,8.73
2023-05-25T01:18:33.641Z,8.71
2023-05-25T01:21:28.975Z,8.74
2023-05-25T01:24:22.415Z,8.76
2023-05-25T01:27:17.214Z,8.64
2023-05-25T01:30:07.938Z,8.80
2023-05-25T01:32:57.104Z,8.76
2023-05-25T01:35:47.069Z,8.71
2023-05-25T01:38:38.589Z,8.61
2023-05-25T01:41:27.431Z,8.39
2023-05-25T01:44:16.144Z,8.47
2023-05-25T01:47:07.106Z,8.42
2023-05-25T01:50:01.821Z,8.40
2023-05-25T01:52:55.069Z,8.36
2023-05-25T01:55:50.675Z,8.44
2023-05-25T01:58:41.012Z,8.42
2023-05-25T02:01:30.169Z,8.52
2023-05-25T02:04:18.908Z,8.56
2023-05-25T02:07:07.442Z,8.51
2023-05-25T02:09:55.889Z,8.51
2023-05-25T02:12:45.821Z,8.29
2023-05-25T02:15:35.161Z,8.47
2023-05-25T02:18:23.710Z,8.49
2023-05-25T02:21:12.368Z,8.58
2023-05-25T02:24:01.624Z,8.59
2023-05-25T02:26:50.074Z,8.58
2023-05-25T02:29:40.508Z,8.62
2023-05-25T02:32:29.483Z,8.57
2023-05-25T02:35:18.217Z,8.64
2023-05-25T02:38:07.490Z,8.56
2023-05-25T02:40:56.039Z,8.35
2023-05-25T02:43:44.553Z,8.38
2023-05-25T02:46:34.711Z,8.35
2023-05-25T02:49:23.293Z,8.41
2023-05-25T02:52:11.974Z,8.40
2023-05-25T02:55:01.013Z,8.40
2023-05-25T02:57:49.906Z,8.43
2023-05-25T03:00:39.440Z,8.13
2023-05-25T03:03:29.775Z,8.36
2023-05-25T03:06:18.336Z,8.39
2023-05-25T03:09:07.337Z,8.34
2023-05-25T03:11:55.821Z,8.29
2023-05-25T03:14:44.268Z,8.25
2023-05-25T03:17:32.822Z,8.19
2023-05-25T03:20:24.590Z,8.21
2023-05-25T03:23:13.214Z,8.24
2023-05-25T03:26:01.739Z,8.17
2023-05-25T03:28:50.795Z,8.16
2023-05-25T03:31:39.345Z,8.14
2023-05-25T03:34:28.228Z,8.14
2023-05-25T03:37:18.581Z,8.15
2023-05-25T03:40:09.434Z,8.16
2023-05-25T03:42:58.418Z,8.22
2023-05-25T03:45:47.213Z,8.39
2023-05-25T03:48:36.032Z,8.26
2023-05-25T03:51:24.501Z,8.14
2023-05-25T03:54:14.369Z,8.16
2023-05-25T03:57:03.730Z,8.09
2023-05-25T03:59:52.252Z,8.09
2023-05-25T04:02:40.994Z,8.16
2023-05-25T04:05:29.547Z,8.13
2023-05-25T04:08:18.882Z,8.13
2023-05-25T04:11:08.786Z,8.19
2023-05-25T04:13:57.276Z,8.23
2023-05-25T04:16:46.064Z,8.22
2023-05-25T04:19:34.738Z,8.21
2023-05-25T04:22:23.387Z,8.26
2023-05-25T04:25:12.032Z,8.31
2023-05-25T04:28:01.872Z,8.31
2023-05-25T04:30:51.236Z,8.16
2023-05-25T04:33:40.743Z,8.28
2023-05-25T04:36:29.743Z,8.07
2023-05-25T04:39:18.662Z,8.29
2023-05-25T04:42:08.300Z,8.44
2023-05-25T04:44:59.009Z,8.44
2023-05-25T04:47:47.553Z,8.46
2023-05-25T04:50:37.377Z,8.55
2023-05-25T04:53:25.872Z,8.59
2023-05-25T04:56:14.386Z,8.67
2023-05-25T04:59:04.357Z,8.78
2023-05-25T05:01:54.357Z,8.89
2023-05-25T05:04:42.981Z,9.04
2023-05-25T05:07:31.651Z,9.20
2023-05-25T05:10:20.268Z,9.33
2023-05-25T05:13:08.850Z,9.48
2023-05-25T05:15:57.350Z,9.65
2023-05-25T05:18:47.275Z,9.81
2023-05-25T05:21:35.803Z,9.98
2023-05-25T05:24:24.524Z,10.19
2023-05-25T05:27:14.618Z,10.30
2023-05-25T05:30:03.506Z,10.56
2023-05-25T05:32:52.037Z,10.48
2023-05-25T05:35:42.021Z,10.80
2023-05-25T05:38:30.879Z,10.92
2023-05-25T05:41:19.439Z,10.94
2023-05-25T05:44:08.013Z,11.20
2023-05-25T05:47:00.320Z,11.17
2023-05-25T05:49:49.539Z,11.31
2023-05-25T05:52:39.456Z,11.28
2023-05-25T05:55:27.990Z,11.44
2023-05-25T05:58:16.549Z,11.78
2023-05-25T06:01:09.031Z,11.85
2023-05-25T06:03:57.649Z,12.00
2023-05-25T06:06:46.287Z,12.18
2023-05-25T06:09:36.116Z,11.95
2023-05-25T06:12:24.667Z,12.53
2023-05-25T06:15:13.359Z,12.49
2023-05-25T06:18:01.911Z,12.68
2023-05-25T06:20:50.820Z,12.84
2023-05-25T06:23:39.373Z,12.72
2023-05-25T06:26:29.496Z,12.90
2023-05-25T06:29:18.035Z,12.79
2023-05-25T06:32:07.179Z,13.17
2023-05-25T06:34:55.951Z,12.98
2023-05-25T06:37:44.594Z,13.28
2023-05-25T06:40:33.120Z,13.34
2023-05-25T06:43:23.012Z,13.26
2023-05-25T06:46:13.678Z,13.24
2023-05-25T06:49:02.416Z,13.64
2023-05-25T06:51:51.213Z,13.82
2023-05-25T06:54:39.755Z,13.72
2023-05-25T06:57:28.290Z,13.95
2023-05-25T07:00:19.775Z,13.99
2023-05-25T07:03:08.326Z,14.23
2023-05-25T07:05:57.017Z,14.63
2023-05-25T07:08:45.721Z,14.50
2023-05-25T07:11:34.479Z,14.50
2023-05-25T07:14:23.002Z,14.86
2023-05-25T07:17:12.902Z,14.98
2023-05-25T07:20:01.470Z,14.78
2023-05-25T07:22:50.120Z,15.08
2023-05-25T07:25:39.777Z,15.20
2023-05-25T07:28:28.700Z,15.58
2023-05-25T07:31:17.668Z,15.43
2023-05-25T07:34:07.535Z,15.93
2023-05-25T07:36:56.105Z,15.93
2023-05-25T07:39:44.874Z,15.94
2023-05-25T07:42:34.530Z,16.24
2023-05-25T07:45:23.639Z,16.45
2023-05-25T07:48:12.191Z,16.30
2023-05-25T07:51:02.139Z,16.43
2023-05-25T07:53:52.335Z,16.52
2023-05-25T07:56:40.996Z,16.73
2023-05-25T07:59:29.540Z,16.98
2023-05-25T08:02:18.470Z,16.80
2023-05-25T08:05:08.044Z,16.99
2023-05-25T08:07:58.254Z,17.29
2023-05-25T08:10:46.805Z,17.33
2023-05-25T08:13:35.582Z,17.56
2023-05-25T08:16:24.220Z,17.28
2023-05-25T08:19:12.916Z,17.01
2023-05-25T08:22:01.384Z,17.37
2023-05-25T08:24:51.331Z,17.52
2023-05-25T08:27:40.119Z,17.42
2023-05-25T08:30:29.191Z,17.87
2023-05-25T08:33:18.007Z,17.81
2023-05-25T08:36:09.176Z,17.55
2023-05-25T08:38:57.740Z,17.36
2023-05-25T08:41:47.719Z,17.45
2023-05-25T08:44:36.896Z,17.29
2023-05-25T08:47:25.425Z,17.39
2023-05-25T08:50:14.059Z,17.71
2023-05-25T08:53:04.648Z,17.82
2023-05-25T08:55:55.134Z,18.04
2023-05-25T08:58:47.866Z,18.51
2023-05-25T09:01:44.531Z,18.58
2023-05-25T09:04:35.714Z,18.55
2023-05-25T09:07:24.865Z,18.82
2023-05-25T09:10:13.593Z,19.14
2023-05-25T09:13:16.690Z,18.98
2023-05-25T09:16:11.157Z,19.19
2023-05-25T09:18:59.805Z,19.02
2023-05-25T09:21:48.322Z,19.11
2023-05-25T09:24:37.420Z,19.19
2023-05-25T09:27:26.995Z,19.53
2023-05-25T09:30:15.653Z,19.55
2023-05-25T09:33:12.784Z,19.65
2023-05-25T09:36:01.419Z,19.34
2023-05-25T09:38:50.533Z,19.15
2023-05-25T09:41:39.978Z,19.20
2023-05-25T09:44:28.574Z,19.35
2023-05-25T09:47:18.249Z,19.66
2023-05-25T09:50:09.669Z,19.60
2023-05-25T09:53:00.173Z,19.68
2023-05-25T09:55:53.938Z,20.09
2023-05-25T09:58:44.772Z,20.40
2023-05-25T10:01:34.012Z,20.38
2023-05-25T10:04:25.153Z,20.33
2023-05-25T10:07:16.077Z,20.32
2023-05-25T10:10:07.891Z,20.49
2023-05-25T10:12:57.445Z,20.49
2023-05-25T10:15:46.799Z,20.88
2023-05-25T10:18:37.250Z,21.08
2023-05-25T10:21:26.755Z,21.40
2023-05-25T10:24:24.104Z,21.80
2023-05-25T10:30:15.606Z,21.00
2023-05-25T10:33:04.505Z,20.68
2023-05-25T10:36:09.460Z,20.90
2023-05-25T10:38:59.827Z,21.26
2023-05-25T10:41:50.028Z,21.34
2023-05-25T10:44:39.712Z,21.49
2023-05-25T10:47:28.609Z,21.89
2023-05-25T10:50:21.777Z,21.42
2023-05-25T10:53:13.979Z,21.61
2023-05-25T10:56:03.533Z,21.43
2023-05-25T10:58:54.035Z,21.85
2023-05-25T11:01:51.570Z,22.26
2023-05-25T11:04:40.321Z,22.22
2023-05-25T11:07:28.873Z,22.41
2023-05-25T11:10:17.530Z,22.37
2023-05-25T11:13:24.159Z,22.31
2023-05-25T11:16:22.088Z,22.68
2023-05-25T11:19:16.191Z,22.35
2023-05-25T11:22:14.326Z,22.52
2023-05-25T11:25:25.492Z,22.53
2023-05-25T11:28:14.345Z,22.90
2023-05-25T11:31:03.033Z,22.12
2023-05-25T11:33:57.219Z,22.29
2023-05-25T11:36:45.761Z,22.15
2023-05-25T11:39:34.231Z,22.38
2023-05-25T11:42:24.119Z,22.66
2023-05-25T11:45:13.305Z,22.55
2023-05-25T11:48:01.870Z,22.55
2023-05-25T11:53:46.744Z,21.58
2023-05-25T11:56:36.172Z,22.31
2023-05-25T11:59:27.180Z,22.65
2023-05-25T12:02:16.844Z,22.58
2023-05-25T12:05:08.504Z,22.43
2023-05-25T12:07:58.270Z,22.33
2023-05-25T12:10:53.950Z,22.58
2023-05-25T12:13:42.487Z,22.59
2023-05-25T12:16:31.556Z,22.94
2023-05-25T12:19:20.246Z,23.49
2023-05-25T12:22:08.844Z,23.30
2023-05-25T12:24:57.392Z,23.59
2023-05-25T12:27:47.238Z,22.98
2023-05-25T12:30:36.087Z,22.84
2023-05-25T12:33:24.638Z,23.05
2023-05-25T12:36:13.240Z,22.93
2023-05-25T12:39:01.729Z,23.16
2023-05-25T12:41:54.323Z,23.05
2023-05-25T12:44:46.396Z,23.12
2023-05-25T12:47:35.147Z,22.89
2023-05-25T12:50:23.824Z,22.75
2023-05-25T12:53:12.308Z,23.17
2023-05-25T12:56:04.572Z,23.35
2023-05-25T12:58:53.082Z,23.14
2023-05-25T13:01:43.664Z,23.38
2023-05-25T13:04:32.273Z,23.43
2023-05-25T13:07:22.679Z,23.17
2023-05-25T13:10:11.809Z,23.49
2023-05-25T13:13:00.647Z,23.34
2023-05-25T13:15:49.350Z,23.37
2023-05-25T13:18:39.228Z,23.59
2023-05-25T13:21:28.269Z,23.71
2023-05-25T13:24:17.429Z,23.69
2023-05-25T13:27:07.070Z,23.85
2023-05-25T13:29:55.606Z,23.61
2023-05-25T13:32:44.627Z,23.86
2023-05-25T13:35:57.731Z,23.95
2023-05-25T13:38:46.357Z,23.75
2023-05-25T13:41:34.871Z,23.39
2023-05-25T13:44:23.497Z,23.65
2023-05-25T13:47:12.048Z,23.75
2023-05-25T13:50:00.614Z,23.72
2023-05-25T13:52:50.417Z,23.71
2023-05-25T13:55:39.106Z,23.56
2023-05-25T13:58:27.616Z,23.80
2023-05-25T14:01:16.437Z,23.63
2023-05-25T14:04:05.544Z,23.36
2023-05-25T14:06:55.494Z,23.28
2023-05-25T14:09:45.654Z,23.64
2023-05-25T14:12:34.242Z,23.79
2023-05-25T14:15:22.783Z,23.81
2023-05-25T14:18:11.375Z,24.01
2023-05-25T14:21:00.137Z,23.88
2023-05-25T14:23:48.684Z,24.10
2023-05-25T14:26:38.570Z,23.74
2023-05-25T14:29:27.093Z,23.83
2023-05-25T14:32:17.092Z,23.74
2023-05-25T14:35:06.276Z,23.79
2023-05-25T14:37:54.739Z,23.76
2023-05-25T14:40:43.270Z,23.92
2023-05-25T14:43:34.642Z,24.15
2023-05-25T14:46:23.260Z,23.73
2023-05-25T14:49:13.541Z,23.96
2023-05-25T14:52:02.143Z,24.04
2023-05-25T14:54:50.680Z,24.21
2023-05-25T14:57:39.269Z,24.20
2023-05-25T15:00:30.973Z,24.25
2023-05-25T15:03:19.707Z,24.07
2023-05-25T15:06:16.239Z,24.10
2023-05-25T15:09:04.906Z,24.07
2023-05-25T15:11:53.494Z,24.06
2023-05-25T15:14:42.441Z,24.00
2023-05-25T15:17:32.515Z,24.15
2023-05-25T15:20:21.250Z,23.99
2023-05-25T15:23:09.826Z,24.00
2023-05-25T15:26:03.030Z,24.00
2023-05-25T15:28:51.548Z,24.08
2023-05-25T15:31:40.148Z,24.07
2023-05-25T15:34:30.061Z,24.19
2023-05-25T15:37:18.609Z,24.08
2023-05-25T15:40:08.594Z,23.90
2023-05-25T15:42:57.173Z,23.75
2023-05-25T15:45:45.993Z,23.76
2023-05-25T15:48:34.687Z,23.67
2023-05-25T15:51:24.570Z,23.48
2023-05-25T15:54:14.585Z,23.42
2023-05-25T15:57:03.749Z,23.60
2023-05-25T15:59:52.398Z,23.52
2023-05-25T16:02:40.987Z,23.53
2023-05-25T16:05:30.102Z,23.61
2023-05-25T16:08:19.975Z,23.71
2023-05-25T16:11:08.992Z,23.64
2023-05-25T16:13:57.509Z,23.54
2023-05-25T16:16:46.156Z,23.55
2023-05-25T16:19:34.833Z,23.38
2023-05-25T16:22:23.372Z,23.21
2023-05-25T16:25:13.229Z,23.42
2023-05-25T16:28:01.997Z,23.49
2023-05-25T16:30:50.796Z,23.50
2023-05-25T16:33:41.896Z,23.39
2023-05-25T16:36:30.475Z,23.36
2023-05-25T16:39:19.015Z,23.20
2023-05-25T16:42:09.047Z,23.23
2023-05-25T16:44:57.611Z,23.01
2023-05-25T16:47:46.235Z,23.25
2023-05-25T16:50:34.752Z,23.20
2023-05-25T16:53:23.261Z,23.31
2023-05-25T16:56:11.759Z,23.10
2023-05-25T16:59:01.678Z,23.15
2023-05-25T17:01:51.146Z,23.16
2023-05-25T17:04:39.756Z,23.04
2023-05-25T17:07:28.813Z,22.96
2023-05-25T17:10:17.617Z,23.06
2023-05-25T17:13:06.176Z,23.07
2023-05-25T17:15:56.124Z,23.09
2023-05-25T17:18:44.637Z,22.93
2023-05-25T17:21:33.154Z,23.05
2023-05-25T17:24:21.725Z,23.09
2023-05-25T17:27:10.315Z,23.02
2023-05-25T17:29:58.833Z,22.86
2023-05-25T17:32:48.760Z,22.87
2023-05-25T17:35:37.277Z,22.90
2023-05-25T17:38:27.509Z,22.85
2023-05-25T17:41:16.262Z,22.84
2023-05-25T17:44:04.808Z,22.71
2023-05-25T17:46:53.356Z,22.64
2023-05-25T17:49:43.250Z,22.52
2023-05-25T17:52:31.831Z,22.59
2023-05-25T17:55:20.928Z,22.46
2023-05-25T17:58:09.714Z,22.42
2023-05-25T18:00:58.377Z,22.28
2023-05-25T18:03:47.030Z,22.34
2023-05-25T18:09:26.098Z,22.31
2023-05-25T18:12:14.850Z,22.19
2023-05-25T18:15:03.388Z,22.16
2023-05-25T18:17:52.025Z,22.07
2023-05-25T18:20:40.935Z,22.04
2023-05-25T18:23:30.990Z,21.96
2023-05-25T18:26:19.518Z,21.89
2023-05-25T18:29:08.680Z,21.85
2023-05-25T18:31:57.172Z,21.79
2023-05-25T18:34:46.050Z,21.72
2023-05-25T18:37:35.753Z,21.66
2023-05-25T18:40:25.734Z,21.58
2023-05-25T18:43:14.337Z,21.47
2023-05-25T18:46:03.021Z,21.42
2023-05-25T18:48:51.618Z,21.33
2023-05-25T18:51:40.188Z,21.19
2023-05-25T18:54:29.587Z,21.15
2023-05-25T18:57:19.757Z,21.07
2023-05-25T19:00:10.237Z,20.95
2023-05-25T19:02:58.832Z,20.78
2023-05-25T19:05:47.433Z,20.71
2023-05-25T19:08:36.016Z,20.58
2023-05-25T19:11:24.584Z,20.49
2023-05-25T19:14:14.520Z,20.42
2023-05-25T19:17:03.060Z,20.26
2023-05-25T19:19:51.616Z,20.10
2023-05-25T19:22:41.702Z,19.96
2023-05-25T19:25:30.305Z,19.77
2023-05-25T19:28:19.427Z,19.62
2023-05-25T19:31:09.407Z,19.48
2023-05-25T19:33:57.979Z,19.36
2023-05-25T19:36:47.143Z,19.24
2023-05-25T19:39:38.130Z,19.15
2023-05-25T19:42:30.090Z,19.06
2023-05-25T19:45:19.356Z,18.94
2023-05-25T19:48:09.349Z,18.87
2023-05-25T19:50:57.941Z,18.74
2023-05-25T19:53:48.965Z,18.51
2023-05-25T19:56:37.547Z,18.46
2023-05-25T19:59:27.984Z,18.36
2023-05-25T20:02:16.862Z,17.96
2023-05-25T20:05:07.135Z,18.06
2023-05-25T20:07:56.258Z,17.85
2023-05-25T20:10:45.166Z,18.03
2023-05-25T20:13:33.909Z,17.90
2023-05-25T20:16:22.579Z,17.78
2023-05-25T20:19:11.663Z,17.65
2023-05-25T20:22:02.506Z,17.59
2023-05-25T20:24:53.205Z,17.54
2023-05-25T20:27:41.770Z,17.46
2023-05-25T20:30:30.404Z,17.37
2023-05-25T20:33:18.935Z,17.31
2023-05-25T20:36:07.632Z,17.32
2023-05-25T20:38:57.477Z,17.17
2023-05-25T20:41:46.032Z,17.14
2023-05-25T20:44:34.567Z,17.06
2023-05-25T20:47:23.075Z,16.97
2023-05-25T20:50:11.853Z,16.53
2023-05-25T20:53:00.399Z,16.84
2023-05-25T20:55:50.374Z,16.62
2023-05-25T20:58:39.681Z,16.65
2023-05-25T21:01:29.260Z,16.50
2023-05-25T21:04:17.992Z,16.37
2023-05-25T21:07:06.646Z,16.38
2023-05-25T21:09:56.494Z,16.29
2023-05-25T21:12:46.469Z,16.26
2023-05-25T21:15:35.033Z,16.22
2023-05-25T21:18:23.589Z,16.13
2023-05-25T21:21:12.273Z,16.07
2023-05-25T21:24:01.293Z,16.04
2023-05-25T21:26:49.788Z,15.96
2023-05-25T21:29:40.468Z,15.89
2023-05-25T21:32:29.019Z,15.82
2023-05-25T21:35:18.103Z,15.79
2023-05-25T21:38:06.705Z,15.74
2023-05-25T21:40:55.447Z,15.71
2023-05-25T21:43:44.197Z,15.63
2023-05-25T21:46:34.139Z,15.54
2023-05-25T21:49:22.705Z,15.50
2023-05-25T21:52:11.309Z,15.42
2023-05-25T21:54:59.919Z,15.38
2023-05-25T21:57:48.443Z,15.35
2023-05-25T22:00:37.759Z,15.32
2023-05-25T22:03:27.934Z,15.24
2023-05-25T22:06:16.593Z,15.17
2023-05-25T22:09:05.378Z,15.06
2023-05-25T22:11:53.906Z,15.01
2023-05-25T22:14:42.414Z,15.00
2023-05-25T22:17:31.282Z,14.84
2023-05-25T22:20:21.186Z,14.91
2023-05-25T22:23:11.894Z,14.80
2023-05-25T22:26:00.399Z,14.77
2023-05-25T22:28:48.882Z,14.74
2023-05-25T22:31:37.429Z,14.71
2023-05-25T22:34:26.090Z,14.70
2023-05-25T22:37:17.350Z,14.61
2023-05-25T22:40:06.859Z,14.50
2023-05-25T22:42:55.545Z,14.45
2023-05-25T22:45:44.363Z,14.38
2023-05-25T22:48:32.999Z,14.34
2023-05-25T22:51:21.491Z,14.29
2023-05-25T22:54:11.306Z,14.26
2023-05-25T22:56:59.823Z,14.24
2023-05-25T22:59:48.358Z,14.21
2023-05-25T23:02:36.952Z,14.20
2023-05-25T23:05:25.696Z,14.15
2023-05-25T23:08:14.235Z,14.11
2023-05-25T23:11:04.137Z,14.09
2023-05-25T23:13:54.620Z,14.01
2023-05-25T23:16:44.280Z,13.95
2023-05-25T23:19:32.860Z,13.91
2023-05-25T23:22:21.509Z,13.96
2023-05-25T23:25:10.988Z,13.88
2023-05-25T23:28:00.830Z,13.85
2023-05-25T23:30:49.327Z,13.82
2023-05-25T23:33:38.101Z,13.76
2023-05-25T23:36:28.234Z,13.75
2023-05-25T23:39:17.195Z,13.77
2023-05-25T23:42:07.201Z,13.73
2023-05-25T23:44:57.040Z,13.74
2023-05-25T23:47:45.655Z,13.72
2023-05-25T23:50:34.875Z,13.65
2023-05-25T23:53:23.367Z,13.63
2023-05-25T23:56:11.921Z,13.57
2023-05-25T23:59:00.462Z,13.53
